sensor_id;sensor_type;location;lat;lon;timestamp;temperature;humidity
79301;SHT31;68755;51.984;5.646;2023-04-15T00:00:16;11.6;51.1
79301;SHT31;68755;51.984;5.646;2023-04-15T00:02:47;11.6;51.2
79301;SHT31;68755;51.984;5.646;2023-04-15T00:05:18;11.6;51.3
79301;SHT31;68755;51.984;5.646;2023-04-15T00:07:48;11.6;51.2
79301;SHT31;68755;51.984;5.646;2023-04-15T00:10:19;11.6;51.2
79301;SHT31;68755;51.984;5.646;2023-04-15T00:12:49;11.6;51.5
79301;SHT31;68755;51.984;5.646;2023-04-15T00:15:19;11.6;51.4
79301;SHT31;68755;51.984;5.646;2023-04-15T00:17:50;11.6;51.2
79301;SHT31;68755;51.984;5.646;2023-04-15T00:20:20;11.5;51.5
79301;SHT31;68755;51.984;5.646;2023-04-15T00:22:50;11.5;51.4
79301;SHT31;68755;51.984;5.646;2023-04-15T00:25:20;11.5;51.5
79301;SHT31;68755;51.984;5.646;2023-04-15T00:27:49;11.5;51.4
79301;SHT31;68755;51.984;5.646;2023-04-15T00:30:20;11.5;51.5
79301;SHT31;68755;51.984;5.646;2023-04-15T00:32:50;11.5;51.7
79301;SHT31;68755;51.984;5.646;2023-04-15T00:35:20;11.5;51.8
79301;SHT31;68755;51.984;5.646;2023-04-15T00:37:50;11.4;51.8
79301;SHT31;68755;51.984;5.646;2023-04-15T00:40:21;11.4;52.3
79301;SHT31;68755;51.984;5.646;2023-04-15T00:42:51;11.4;52.5
79301;SHT31;68755;51.984;5.646;2023-04-15T00:45:21;11.4;52.6
79301;SHT31;68755;51.984;5.646;2023-04-15T00:47:52;11.4;52.8
79301;SHT31;68755;51.984;5.646;2023-04-15T00:50:23;11.4;52.8
79301;SHT31;68755;51.984;5.646;2023-04-15T00:52:53;11.4;52.9
79301;SHT31;68755;51.984;5.646;2023-04-15T00:55:22;11.3;52.7
79301;SHT31;68755;51.984;5.646;2023-04-15T00:57:55;11.3;52.7
79301;SHT31;68755;51.984;5.646;2023-04-15T01:00:25;11.3;52.6
79301;SHT31;68755;51.984;5.646;2023-04-15T01:02:55;11.2;52.6
79301;SHT31;68755;51.984;5.646;2023-04-15T01:05:25;11.2;52.7
79301;SHT31;68755;51.984;5.646;2023-04-15T01:07:55;11.1;52.8
79301;SHT31;68755;51.984;5.646;2023-04-15T01:10:26;11.1;52.8
79301;SHT31;68755;51.984;5.646;2023-04-15T01:12:56;11.0;53.1
79301;SHT31;68755;51.984;5.646;2023-04-15T01:15:25;11.0;53.3
79301;SHT31;68755;51.984;5.646;2023-04-15T01:17:56;11.0;53.7
79301;SHT31;68755;51.984;5.646;2023-04-15T01:20:26;10.9;53.8
79301;SHT31;68755;51.984;5.646;2023-04-15T01:22:56;10.9;54.0
79301;SHT31;68755;51.984;5.646;2023-04-15T01:25:30;10.8;54.0
79301;SHT31;68755;51.984;5.646;2023-04-15T01:28:04;10.8;54.1
79301;SHT31;68755;51.984;5.646;2023-04-15T01:30:34;10.8;54.3
79301;SHT31;68755;51.984;5.646;2023-04-15T01:33:04;10.7;54.4
79301;SHT31;68755;51.984;5.646;2023-04-15T01:35:35;10.7;54.4
79301;SHT31;68755;51.984;5.646;2023-04-15T01:38:06;10.7;54.5
79301;SHT31;68755;51.984;5.646;2023-04-15T01:40:36;10.6;54.5
79301;SHT31;68755;51.984;5.646;2023-04-15T01:43:05;10.6;54.6
79301;SHT31;68755;51.984;5.646;2023-04-15T01:45:35;10.6;54.6
79301;SHT31;68755;51.984;5.646;2023-04-15T01:48:05;10.5;54.9
79301;SHT31;68755;51.984;5.646;2023-04-15T01:50:36;10.5;55.1
79301;SHT31;68755;51.984;5.646;2023-04-15T01:53:06;10.5;55.2
79301;SHT31;68755;51.984;5.646;2023-04-15T01:55:36;10.5;55.4
79301;SHT31;68755;51.984;5.646;2023-04-15T01:58:05;10.4;55.6
79301;SHT31;68755;51.984;5.646;2023-04-15T02:00:35;10.4;55.7
79301;SHT31;68755;51.984;5.646;2023-04-15T02:03:05;10.4;55.6
79301;SHT31;68755;51.984;5.646;2023-04-15T02:05:35;10.4;55.7
79301;SHT31;68755;51.984;5.646;2023-04-15T02:08:04;10.3;55.8
79301;SHT31;68755;51.984;5.646;2023-04-15T02:10:34;10.3;56.0
79301;SHT31;68755;51.984;5.646;2023-04-15T02:13:04;10.3;56.0
79301;SHT31;68755;51.984;5.646;2023-04-15T02:15:34;10.3;56.1
79301;SHT31;68755;51.984;5.646;2023-04-15T02:18:04;10.3;56.1
79301;SHT31;68755;51.984;5.646;2023-04-15T02:20:33;10.3;56.4
79301;SHT31;68755;51.984;5.646;2023-04-15T02:23:04;10.2;56.3
79301;SHT31;68755;51.984;5.646;2023-04-15T02:25:36;10.2;56.8
79301;SHT31;68755;51.984;5.646;2023-04-15T02:28:07;10.2;56.5
79301;SHT31;68755;51.984;5.646;2023-04-15T02:30:38;10.2;56.8
79301;SHT31;68755;51.984;5.646;2023-04-15T02:33:08;10.2;56.7
79301;SHT31;68755;51.984;5.646;2023-04-15T02:35:38;10.2;56.8
79301;SHT31;68755;51.984;5.646;2023-04-15T02:38:10;10.2;57.3
79301;SHT31;68755;51.984;5.646;2023-04-15T02:40:40;10.2;56.9
79301;SHT31;68755;51.984;5.646;2023-04-15T02:43:10;10.2;57.0
79301;SHT31;68755;51.984;5.646;2023-04-15T02:45:40;10.1;57.0
79301;SHT31;68755;51.984;5.646;2023-04-15T02:48:09;10.1;57.5
79301;SHT31;68755;51.984;5.646;2023-04-15T02:50:39;10.1;57.1
79301;SHT31;68755;51.984;5.646;2023-04-15T02:53:10;10.1;57.2
79301;SHT31;68755;51.984;5.646;2023-04-15T02:55:41;10.1;57.2
79301;SHT31;68755;51.984;5.646;2023-04-15T02:58:11;10.0;57.4
79301;SHT31;68755;51.984;5.646;2023-04-15T03:00:40;10.0;57.7
79301;SHT31;68755;51.984;5.646;2023-04-15T03:03:12;10.0;57.7
79301;SHT31;68755;51.984;5.646;2023-04-15T03:05:43;9.9;57.8
79301;SHT31;68755;51.984;5.646;2023-04-15T03:08:13;9.9;58.2
79301;SHT31;68755;51.984;5.646;2023-04-15T03:10:43;9.9;58.3
79301;SHT31;68755;51.984;5.646;2023-04-15T03:13:12;9.9;58.5
79301;SHT31;68755;51.984;5.646;2023-04-15T03:15:42;9.9;58.5
79301;SHT31;68755;51.984;5.646;2023-04-15T03:18:12;9.8;58.6
79301;SHT31;68755;51.984;5.646;2023-04-15T03:20:43;9.8;58.6
79301;SHT31;68755;51.984;5.646;2023-04-15T03:23:12;9.8;59.2
79301;SHT31;68755;51.984;5.646;2023-04-15T03:25:43;9.8;58.9
79301;SHT31;68755;51.984;5.646;2023-04-15T03:28:15;9.8;58.9
79301;SHT31;68755;51.984;5.646;2023-04-15T03:30:45;9.8;59.1
79301;SHT31;68755;51.984;5.646;2023-04-15T03:33:14;9.7;59.5
79301;SHT31;68755;51.984;5.646;2023-04-15T03:35:44;9.7;59.7
79301;SHT31;68755;51.984;5.646;2023-04-15T03:38:13;9.7;59.5
79301;SHT31;68755;51.984;5.646;2023-04-15T03:40:45;9.7;59.9
79301;SHT31;68755;51.984;5.646;2023-04-15T03:43:15;9.7;59.8
79301;SHT31;68755;51.984;5.646;2023-04-15T03:45:44;9.6;60.0
79301;SHT31;68755;51.984;5.646;2023-04-15T03:48:14;9.6;60.0
79301;SHT31;68755;51.984;5.646;2023-04-15T03:50:43;9.6;60.4
79301;SHT31;68755;51.984;5.646;2023-04-15T03:53:13;9.6;60.4
79301;SHT31;68755;51.984;5.646;2023-04-15T03:55:43;9.5;60.5
79301;SHT31;68755;51.984;5.646;2023-04-15T03:58:13;9.5;60.8
79301;SHT31;68755;51.984;5.646;2023-04-15T04:00:42;9.5;60.9
79301;SHT31;68755;51.984;5.646;2023-04-15T04:03:12;9.5;61.1
79301;SHT31;68755;51.984;5.646;2023-04-15T04:05:42;9.5;61.3
79301;SHT31;68755;51.984;5.646;2023-04-15T04:08:12;9.4;61.3
79301;SHT31;68755;51.984;5.646;2023-04-15T04:10:42;9.4;61.4
79301;SHT31;68755;51.984;5.646;2023-04-15T04:13:12;9.4;61.3
79301;SHT31;68755;51.984;5.646;2023-04-15T04:15:42;9.4;61.6
79301;SHT31;68755;51.984;5.646;2023-04-15T04:18:11;9.4;61.7
79301;SHT31;68755;51.984;5.646;2023-04-15T04:20:41;9.3;62.0
79301;SHT31;68755;51.984;5.646;2023-04-15T04:23:11;9.3;62.1
79301;SHT31;68755;51.984;5.646;2023-04-15T04:25:40;9.3;62.1
79301;SHT31;68755;51.984;5.646;2023-04-15T04:28:10;9.3;62.2
79301;SHT31;68755;51.984;5.646;2023-04-15T04:30:40;9.3;62.1
79301;SHT31;68755;51.984;5.646;2023-04-15T04:33:10;9.3;62.2
79301;SHT31;68755;51.984;5.646;2023-04-15T04:35:39;9.3;62.6
79301;SHT31;68755;51.984;5.646;2023-04-15T04:38:09;9.3;62.4
79301;SHT31;68755;51.984;5.646;2023-04-15T04:40:39;9.2;62.5
79301;SHT31;68755;51.984;5.646;2023-04-15T04:43:09;9.2;62.7
79301;SHT31;68755;51.984;5.646;2023-04-15T04:45:38;9.2;62.9
79301;SHT31;68755;51.984;5.646;2023-04-15T04:48:08;9.2;62.7
79301;SHT31;68755;51.984;5.646;2023-04-15T04:50:38;9.2;62.9
79301;SHT31;68755;51.984;5.646;2023-04-15T04:53:08;9.2;63.1
79301;SHT31;68755;51.984;5.646;2023-04-15T04:55:38;9.2;63.0
79301;SHT31;68755;51.984;5.646;2023-04-15T04:58:07;9.2;63.1
79301;SHT31;68755;51.984;5.646;2023-04-15T05:00:39;9.2;63.2
79301;SHT31;68755;51.984;5.646;2023-04-15T05:03:09;9.2;63.3
79301;SHT31;68755;51.984;5.646;2023-04-15T05:05:39;9.2;63.4
79301;SHT31;68755;51.984;5.646;2023-04-15T05:08:10;9.2;63.5
79301;SHT31;68755;51.984;5.646;2023-04-15T05:10:40;9.2;63.5
79301;SHT31;68755;51.984;5.646;2023-04-15T05:13:09;9.1;63.6
79301;SHT31;68755;51.984;5.646;2023-04-15T05:15:39;9.1;63.8
79301;SHT31;68755;51.984;5.646;2023-04-15T05:18:09;9.1;63.8
79301;SHT31;68755;51.984;5.646;2023-04-15T05:20:39;9.1;64.0
79301;SHT31;68755;51.984;5.646;2023-04-15T05:23:09;9.1;64.1
79301;SHT31;68755;51.984;5.646;2023-04-15T05:25:38;9.0;64.2
79301;SHT31;68755;51.984;5.646;2023-04-15T05:28:08;9.0;64.2
79301;SHT31;68755;51.984;5.646;2023-04-15T05:30:39;9.0;64.3
79301;SHT31;68755;51.984;5.646;2023-04-15T05:33:08;9.0;64.6
79301;SHT31;68755;51.984;5.646;2023-04-15T05:35:38;9.0;64.8
79301;SHT31;68755;51.984;5.646;2023-04-15T05:38:08;9.0;64.8
79301;SHT31;68755;51.984;5.646;2023-04-15T05:40:37;9.0;65.4
79301;SHT31;68755;51.984;5.646;2023-04-15T05:43:07;9.0;65.6
79301;SHT31;68755;51.984;5.646;2023-04-15T05:45:37;9.0;65.8
79301;SHT31;68755;51.984;5.646;2023-04-15T05:48:07;9.0;65.8
79301;SHT31;68755;51.984;5.646;2023-04-15T05:50:41;9.0;66.0
79301;SHT31;68755;51.984;5.646;2023-04-15T05:53:13;9.0;66.2
79301;SHT31;68755;51.984;5.646;2023-04-15T05:55:43;9.0;66.3
79301;SHT31;68755;51.984;5.646;2023-04-15T05:58:13;9.0;66.3
79301;SHT31;68755;51.984;5.646;2023-04-15T06:00:43;9.1;66.6
79301;SHT31;68755;51.984;5.646;2023-04-15T06:03:13;9.1;66.7
79301;SHT31;68755;51.984;5.646;2023-04-15T06:05:42;9.1;67.0
79301;SHT31;68755;51.984;5.646;2023-04-15T06:08:12;9.1;67.3
79301;SHT31;68755;51.984;5.646;2023-04-15T06:10:42;9.2;67.2
79301;SHT31;68755;51.984;5.646;2023-04-15T06:13:12;9.2;67.6
79301;SHT31;68755;51.984;5.646;2023-04-15T06:15:43;9.3;67.4
79301;SHT31;68755;51.984;5.646;2023-04-15T06:18:13;9.3;67.5
79301;SHT31;68755;51.984;5.646;2023-04-15T06:20:44;9.4;67.3
79301;SHT31;68755;51.984;5.646;2023-04-15T06:23:14;9.4;67.6
79301;SHT31;68755;51.984;5.646;2023-04-15T06:25:44;9.5;67.6
79301;SHT31;68755;51.984;5.646;2023-04-15T06:28:13;9.5;66.9
79301;SHT31;68755;51.984;5.646;2023-04-15T06:30:43;9.6;67.1
79301;SHT31;68755;51.984;5.646;2023-04-15T06:33:13;9.6;67.0
79301;SHT31;68755;51.984;5.646;2023-04-15T06:35:42;9.6;67.1
79301;SHT31;68755;51.984;5.646;2023-04-15T06:38:12;9.6;66.9
79301;SHT31;68755;51.984;5.646;2023-04-15T06:40:42;9.7;67.2
79301;SHT31;68755;51.984;5.646;2023-04-15T06:43:14;9.7;67.0
79301;SHT31;68755;51.984;5.646;2023-04-15T06:45:43;9.8;67.2
79301;SHT31;68755;51.984;5.646;2023-04-15T06:48:13;9.8;66.9
79301;SHT31;68755;51.984;5.646;2023-04-15T06:50:43;9.9;66.9
79301;SHT31;68755;51.984;5.646;2023-04-15T06:53:12;9.9;67.0
79301;SHT31;68755;51.984;5.646;2023-04-15T06:55:42;9.9;67.3
79301;SHT31;68755;51.984;5.646;2023-04-15T06:58:14;9.9;67.4
79301;SHT31;68755;51.984;5.646;2023-04-15T07:00:43;10.0;66.8
79301;SHT31;68755;51.984;5.646;2023-04-15T07:03:13;10.0;66.8
79301;SHT31;68755;51.984;5.646;2023-04-15T07:05:43;10.0;66.8
79301;SHT31;68755;51.984;5.646;2023-04-15T07:08:13;10.1;66.8
79301;SHT31;68755;51.984;5.646;2023-04-15T07:10:42;10.1;66.8
79301;SHT31;68755;51.984;5.646;2023-04-15T07:13:12;10.1;66.2
79301;SHT31;68755;51.984;5.646;2023-04-15T07:15:44;10.2;65.8
79301;SHT31;68755;51.984;5.646;2023-04-15T07:18:13;10.2;65.7
79301;SHT31;68755;51.984;5.646;2023-04-15T07:20:45;10.3;64.7
79301;SHT31;68755;51.984;5.646;2023-04-15T07:23:15;10.3;63.9
79301;SHT31;68755;51.984;5.646;2023-04-15T07:25:46;10.4;64.0
79301;SHT31;68755;51.984;5.646;2023-04-15T07:28:16;10.4;63.2
79301;SHT31;68755;51.984;5.646;2023-04-15T07:30:46;10.5;62.8
79301;SHT31;68755;51.984;5.646;2023-04-15T07:33:15;10.5;63.6
79301;SHT31;68755;51.984;5.646;2023-04-15T07:35:45;10.5;62.8
79301;SHT31;68755;51.984;5.646;2023-04-15T07:38:15;10.6;62.4
79301;SHT31;68755;51.984;5.646;2023-04-15T07:40:45;10.6;60.9
79301;SHT31;68755;51.984;5.646;2023-04-15T07:43:15;10.7;60.6
79301;SHT31;68755;51.984;5.646;2023-04-15T07:45:47;10.7;60.8
79301;SHT31;68755;51.984;5.646;2023-04-15T07:48:16;10.8;60.8
79301;SHT31;68755;51.984;5.646;2023-04-15T07:50:46;10.8;60.3
79301;SHT31;68755;51.984;5.646;2023-04-15T07:53:16;10.9;60.4
79301;SHT31;68755;51.984;5.646;2023-04-15T07:55:46;10.9;59.6
79301;SHT31;68755;51.984;5.646;2023-04-15T07:58:16;11.0;59.2
79301;SHT31;68755;51.984;5.646;2023-04-15T08:00:45;11.0;59.6
79301;SHT31;68755;51.984;5.646;2023-04-15T08:03:15;11.0;59.2
79301;SHT31;68755;51.984;5.646;2023-04-15T08:05:45;11.1;58.8
79301;SHT31;68755;51.984;5.646;2023-04-15T08:08:15;11.1;58.7
79301;SHT31;68755;51.984;5.646;2023-04-15T08:10:44;11.1;59.2
79301;SHT31;68755;51.984;5.646;2023-04-15T08:13:14;11.1;58.8
79301;SHT31;68755;51.984;5.646;2023-04-15T08:15:44;11.2;58.7
79301;SHT31;68755;51.984;5.646;2023-04-15T08:18:14;11.2;58.7
79301;SHT31;68755;51.984;5.646;2023-04-15T08:20:45;11.2;59.2
79301;SHT31;68755;51.984;5.646;2023-04-15T08:23:16;11.2;58.7
79301;SHT31;68755;51.984;5.646;2023-04-15T08:25:45;11.2;58.8
79301;SHT31;68755;51.984;5.646;2023-04-15T08:28:15;11.3;59.0
79301;SHT31;68755;51.984;5.646;2023-04-15T08:30:45;11.3;59.0
79301;SHT31;68755;51.984;5.646;2023-04-15T08:33:15;11.3;59.4
79301;SHT31;68755;51.984;5.646;2023-04-15T08:35:45;11.3;59.0
79301;SHT31;68755;51.984;5.646;2023-04-15T08:38:15;11.4;59.3
79301;SHT31;68755;51.984;5.646;2023-04-15T08:40:45;11.4;59.4
79301;SHT31;68755;51.984;5.646;2023-04-15T08:43:21;11.5;58.3
79301;SHT31;68755;51.984;5.646;2023-04-15T08:45:53;11.5;58.5
79301;SHT31;68755;51.984;5.646;2023-04-15T08:48:28;11.5;58.7
79301;SHT31;68755;51.984;5.646;2023-04-15T08:50:58;11.6;58.2
79301;SHT31;68755;51.984;5.646;2023-04-15T08:53:29;11.6;57.8
79301;SHT31;68755;51.984;5.646;2023-04-15T08:56:04;11.7;58.1
79301;SHT31;68755;51.984;5.646;2023-04-15T08:58:36;11.7;57.8
79301;SHT31;68755;51.984;5.646;2023-04-15T09:01:06;11.8;57.8
79301;SHT31;68755;51.984;5.646;2023-04-15T09:03:36;11.8;57.5
79301;SHT31;68755;51.984;5.646;2023-04-15T09:06:07;11.9;57.0
79301;SHT31;68755;51.984;5.646;2023-04-15T09:08:37;11.9;56.8
79301;SHT31;68755;51.984;5.646;2023-04-15T09:11:06;11.9;57.7
79301;SHT31;68755;51.984;5.646;2023-04-15T09:13:36;12.0;57.7
79301;SHT31;68755;51.984;5.646;2023-04-15T09:16:06;12.0;57.5
79301;SHT31;68755;51.984;5.646;2023-04-15T09:18:37;12.0;57.1
79301;SHT31;68755;51.984;5.646;2023-04-15T09:21:09;12.1;56.9
79301;SHT31;68755;51.984;5.646;2023-04-15T09:23:53;12.1;57.1
79301;SHT31;68755;51.984;5.646;2023-04-15T09:26:15;12.2;56.9
79301;SHT31;68755;51.984;5.646;2023-04-15T09:28:45;12.3;57.0
79301;SHT31;68755;51.984;5.646;2023-04-15T09:31:14;12.3;57.6
79301;SHT31;68755;51.984;5.646;2023-04-15T09:33:55;12.4;57.8
79301;SHT31;68755;51.984;5.646;2023-04-15T09:36:25;12.5;58.1
79301;SHT31;68755;51.984;5.646;2023-04-15T09:38:58;12.6;56.3
79301;SHT31;68755;51.984;5.646;2023-04-15T09:41:28;12.7;55.1
79301;SHT31;68755;51.984;5.646;2023-04-15T09:43:57;12.8;53.0
79301;SHT31;68755;51.984;5.646;2023-04-15T09:46:42;12.8;52.8
79301;SHT31;68755;51.984;5.646;2023-04-15T09:49:12;12.9;53.3
79301;SHT31;68755;51.984;5.646;2023-04-15T09:51:43;12.9;51.8
79301;SHT31;68755;51.984;5.646;2023-04-15T09:54:17;13.0;53.3
79301;SHT31;68755;51.984;5.646;2023-04-15T09:56:47;13.0;54.0
79301;SHT31;68755;51.984;5.646;2023-04-15T09:59:19;13.1;53.7
79301;SHT31;68755;51.984;5.646;2023-04-15T10:01:49;13.1;53.2
79301;SHT31;68755;51.984;5.646;2023-04-15T10:04:19;13.1;52.7
79301;SHT31;68755;51.984;5.646;2023-04-15T10:06:49;13.2;53.1
79301;SHT31;68755;51.984;5.646;2023-04-15T10:09:19;13.3;52.6
79301;SHT31;68755;51.984;5.646;2023-04-15T10:11:49;13.3;52.7
79301;SHT31;68755;51.984;5.646;2023-04-15T10:14:21;13.4;53.0
79301;SHT31;68755;51.984;5.646;2023-04-15T10:16:55;13.4;54.5
79301;SHT31;68755;51.984;5.646;2023-04-15T10:19:26;13.4;53.7
79301;SHT31;68755;51.984;5.646;2023-04-15T10:21:59;13.5;52.6
79301;SHT31;68755;51.984;5.646;2023-04-15T10:24:30;13.5;52.5
79301;SHT31;68755;51.984;5.646;2023-04-15T10:27:02;13.5;52.5
79301;SHT31;68755;51.984;5.646;2023-04-15T10:29:32;13.5;52.7
79301;SHT31;68755;51.984;5.646;2023-04-15T10:32:02;13.5;52.8
79301;SHT31;68755;51.984;5.646;2023-04-15T10:34:32;13.6;52.8
79301;SHT31;68755;51.984;5.646;2023-04-15T10:37:03;13.6;53.6
79301;SHT31;68755;51.984;5.646;2023-04-15T10:39:41;13.6;52.7
79301;SHT31;68755;51.984;5.646;2023-04-15T10:42:13;13.6;53.6
79301;SHT31;68755;51.984;5.646;2023-04-15T10:44:44;13.6;53.2
79301;SHT31;68755;51.984;5.646;2023-04-15T10:47:16;13.6;53.3
79301;SHT31;68755;51.984;5.646;2023-04-15T10:49:49;13.6;53.3
79301;SHT31;68755;51.984;5.646;2023-04-15T10:52:23;13.6;54.0
79301;SHT31;68755;51.984;5.646;2023-04-15T10:55:11;13.7;53.6
79301;SHT31;68755;51.984;5.646;2023-04-15T10:57:40;13.7;53.6
79301;SHT31;68755;51.984;5.646;2023-04-15T11:00:15;13.7;52.9
79301;SHT31;68755;51.984;5.646;2023-04-15T11:02:47;13.7;53.8
79301;SHT31;68755;51.984;5.646;2023-04-15T11:05:18;13.8;54.0
79301;SHT31;68755;51.984;5.646;2023-04-15T11:07:50;13.8;52.5
79301;SHT31;68755;51.984;5.646;2023-04-15T11:11:04;13.9;52.7
79301;SHT31;68755;51.984;5.646;2023-04-15T11:13:35;13.9;53.4
79301;SHT31;68755;51.984;5.646;2023-04-15T11:16:05;14.0;52.0
79301;SHT31;68755;51.984;5.646;2023-04-15T11:18:35;14.0;52.2
79301;SHT31;68755;51.984;5.646;2023-04-15T11:21:07;14.0;52.8
79301;SHT31;68755;51.984;5.646;2023-04-15T11:23:40;14.1;52.2
79301;SHT31;68755;51.984;5.646;2023-04-15T11:26:13;14.1;51.3
79301;SHT31;68755;51.984;5.646;2023-04-15T11:28:44;14.1;52.2
79301;SHT31;68755;51.984;5.646;2023-04-15T11:31:16;14.1;51.4
79301;SHT31;68755;51.984;5.646;2023-04-15T11:33:57;14.2;51.8
79301;SHT31;68755;51.984;5.646;2023-04-15T11:36:29;14.2;51.2
79301;SHT31;68755;51.984;5.646;2023-04-15T11:39:00;14.3;52.3
79301;SHT31;68755;51.984;5.646;2023-04-15T11:41:30;14.3;49.7
79301;SHT31;68755;51.984;5.646;2023-04-15T11:44:00;14.3;49.4
79301;SHT31;68755;51.984;5.646;2023-04-15T11:46:30;14.3;50.1
79301;SHT31;68755;51.984;5.646;2023-04-15T11:49:00;14.3;50.2
79301;SHT31;68755;51.984;5.646;2023-04-15T11:51:34;14.3;51.2
79301;SHT31;68755;51.984;5.646;2023-04-15T11:54:04;14.4;50.9
79301;SHT31;68755;51.984;5.646;2023-04-15T11:56:34;14.4;50.4
79301;SHT31;68755;51.984;5.646;2023-04-15T11:59:05;14.4;49.6
79301;SHT31;68755;51.984;5.646;2023-04-15T12:01:36;14.4;49.6
79301;SHT31;68755;51.984;5.646;2023-04-15T12:04:12;14.4;49.7
79301;SHT31;68755;51.984;5.646;2023-04-15T12:06:44;14.5;50.2
79301;SHT31;68755;51.984;5.646;2023-04-15T12:09:15;14.5;50.8
79301;SHT31;68755;51.984;5.646;2023-04-15T12:11:47;14.5;50.0
79301;SHT31;68755;51.984;5.646;2023-04-15T12:14:19;14.5;49.5
79301;SHT31;68755;51.984;5.646;2023-04-15T12:16:53;14.5;49.4
79301;SHT31;68755;51.984;5.646;2023-04-15T12:19:26;14.5;50.1
79301;SHT31;68755;51.984;5.646;2023-04-15T12:21:59;14.5;50.3
79301;SHT31;68755;51.984;5.646;2023-04-15T12:24:32;14.6;50.3
79301;SHT31;68755;51.984;5.646;2023-04-15T12:27:04;14.6;50.9
79301;SHT31;68755;51.984;5.646;2023-04-15T12:29:36;14.6;50.6
79301;SHT31;68755;51.984;5.646;2023-04-15T12:32:08;14.7;50.5
79301;SHT31;68755;51.984;5.646;2023-04-15T12:34:39;14.7;50.5
79301;SHT31;68755;51.984;5.646;2023-04-15T12:37:10;14.7;50.9
79301;SHT31;68755;51.984;5.646;2023-04-15T12:39:42;14.7;51.1
79301;SHT31;68755;51.984;5.646;2023-04-15T12:42:13;14.7;50.3
79301;SHT31;68755;51.984;5.646;2023-04-15T12:44:43;14.7;50.5
79301;SHT31;68755;51.984;5.646;2023-04-15T12:47:13;14.7;49.5
79301;SHT31;68755;51.984;5.646;2023-04-15T12:49:42;14.7;49.6
79301;SHT31;68755;51.984;5.646;2023-04-15T12:52:12;14.7;49.2
79301;SHT31;68755;51.984;5.646;2023-04-15T12:54:44;14.7;50.8
79301;SHT31;68755;51.984;5.646;2023-04-15T12:57:14;14.7;48.9
79301;SHT31;68755;51.984;5.646;2023-04-15T12:59:43;14.7;48.4
79301;SHT31;68755;51.984;5.646;2023-04-15T13:02:13;14.7;49.9
79301;SHT31;68755;51.984;5.646;2023-04-15T13:04:43;14.7;49.2
79301;SHT31;68755;51.984;5.646;2023-04-15T13:07:12;14.7;49.9
79301;SHT31;68755;51.984;5.646;2023-04-15T13:09:42;14.7;51.0
79301;SHT31;68755;51.984;5.646;2023-04-15T13:12:11;14.7;50.3
79301;SHT31;68755;51.984;5.646;2023-04-15T13:14:42;14.7;48.8
79301;SHT31;68755;51.984;5.646;2023-04-15T13:17:12;14.7;49.3
79301;SHT31;68755;51.984;5.646;2023-04-15T13:19:43;14.7;49.8
79301;SHT31;68755;51.984;5.646;2023-04-15T13:22:15;14.7;51.2
79301;SHT31;68755;51.984;5.646;2023-04-15T13:24:45;14.7;51.2
79301;SHT31;68755;51.984;5.646;2023-04-15T13:27:15;14.8;50.4
79301;SHT31;68755;51.984;5.646;2023-04-15T13:29:44;14.8;50.9
79301;SHT31;68755;51.984;5.646;2023-04-15T13:32:14;14.8;51.8
79301;SHT31;68755;51.984;5.646;2023-04-15T13:34:43;14.8;50.8
79301;SHT31;68755;51.984;5.646;2023-04-15T13:37:15;14.8;51.1
79301;SHT31;68755;51.984;5.646;2023-04-15T13:39:45;14.9;51.4
79301;SHT31;68755;51.984;5.646;2023-04-15T13:42:14;14.9;51.7
79301;SHT31;68755;51.984;5.646;2023-04-15T13:44:44;14.9;50.2
79301;SHT31;68755;51.984;5.646;2023-04-15T13:47:14;14.9;50.5
79301;SHT31;68755;51.984;5.646;2023-04-15T13:49:43;14.9;50.4
79301;SHT31;68755;51.984;5.646;2023-04-15T13:52:13;14.9;50.5
79301;SHT31;68755;51.984;5.646;2023-04-15T13:54:43;14.9;50.9
79301;SHT31;68755;51.984;5.646;2023-04-15T13:57:13;14.9;50.8
79301;SHT31;68755;51.984;5.646;2023-04-15T13:59:43;14.9;50.5
79301;SHT31;68755;51.984;5.646;2023-04-15T14:02:13;15.0;49.8
79301;SHT31;68755;51.984;5.646;2023-04-15T14:04:43;15.0;50.2
79301;SHT31;68755;51.984;5.646;2023-04-15T14:07:12;15.0;50.7
79301;SHT31;68755;51.984;5.646;2023-04-15T14:09:42;14.9;50.8
79301;SHT31;68755;51.984;5.646;2023-04-15T14:12:13;14.9;51.7
79301;SHT31;68755;51.984;5.646;2023-04-15T14:14:44;14.9;51.5
79301;SHT31;68755;51.984;5.646;2023-04-15T14:17:13;14.9;51.7
79301;SHT31;68755;51.984;5.646;2023-04-15T14:19:45;14.9;51.7
79301;SHT31;68755;51.984;5.646;2023-04-15T14:22:14;14.8;51.6
79301;SHT31;68755;51.984;5.646;2023-04-15T14:24:45;14.8;51.9
79301;SHT31;68755;51.984;5.646;2023-04-15T14:27:15;14.7;52.2
79301;SHT31;68755;51.984;5.646;2023-04-15T14:29:45;14.7;51.5
79301;SHT31;68755;51.984;5.646;2023-04-15T14:32:14;14.6;51.6
79301;SHT31;68755;51.984;5.646;2023-04-15T14:34:44;14.6;51.8
79301;SHT31;68755;51.984;5.646;2023-04-15T14:37:13;14.6;52.2
79301;SHT31;68755;51.984;5.646;2023-04-15T14:39:43;14.5;52.4
79301;SHT31;68755;51.984;5.646;2023-04-15T14:42:13;14.5;52.5
79301;SHT31;68755;51.984;5.646;2023-04-15T14:44:42;14.5;52.7
79301;SHT31;68755;51.984;5.646;2023-04-15T14:47:12;14.4;53.1
79301;SHT31;68755;51.984;5.646;2023-04-15T14:49:43;14.4;53.0
79301;SHT31;68755;51.984;5.646;2023-04-15T14:52:12;14.3;52.6
79301;SHT31;68755;51.984;5.646;2023-04-15T14:54:42;14.3;52.0
79301;SHT31;68755;51.984;5.646;2023-04-15T14:57:12;14.3;52.2
79301;SHT31;68755;51.984;5.646;2023-04-15T14:59:41;14.2;52.6
79301;SHT31;68755;51.984;5.646;2023-04-15T15:02:12;14.1;53.0
79301;SHT31;68755;51.984;5.646;2023-04-15T15:04:42;14.1;53.2
79301;SHT31;68755;51.984;5.646;2023-04-15T15:07:12;14.1;53.6
79301;SHT31;68755;51.984;5.646;2023-04-15T15:09:41;14.0;53.9
79301;SHT31;68755;51.984;5.646;2023-04-15T15:12:11;14.0;54.0
79301;SHT31;68755;51.984;5.646;2023-04-15T15:14:41;13.9;54.6
79301;SHT31;68755;51.984;5.646;2023-04-15T15:17:11;13.9;54.7
79301;SHT31;68755;51.984;5.646;2023-04-15T15:19:40;13.9;55.1
79301;SHT31;68755;51.984;5.646;2023-04-15T15:22:11;13.9;55.2
79301;SHT31;68755;51.984;5.646;2023-04-15T15:24:40;13.9;55.0
79301;SHT31;68755;51.984;5.646;2023-04-15T15:27:10;13.9;54.5
79301;SHT31;68755;51.984;5.646;2023-04-15T15:29:40;13.9;54.7
79301;SHT31;68755;51.984;5.646;2023-04-15T15:32:10;13.8;54.6
79301;SHT31;68755;51.984;5.646;2023-04-15T15:34:40;13.8;54.1
79301;SHT31;68755;51.984;5.646;2023-04-15T15:37:09;13.7;54.0
79301;SHT31;68755;51.984;5.646;2023-04-15T15:39:40;13.7;54.7
79301;SHT31;68755;51.984;5.646;2023-04-15T15:42:09;13.6;55.0
79301;SHT31;68755;51.984;5.646;2023-04-15T15:44:39;13.6;54.8
79301;SHT31;68755;51.984;5.646;2023-04-15T15:47:09;13.6;55.0
79301;SHT31;68755;51.984;5.646;2023-04-15T15:49:39;13.6;55.2
79301;SHT31;68755;51.984;5.646;2023-04-15T15:52:10;13.5;55.0
79301;SHT31;68755;51.984;5.646;2023-04-15T15:54:40;13.5;55.0
79301;SHT31;68755;51.984;5.646;2023-04-15T15:57:10;13.5;55.4
79301;SHT31;68755;51.984;5.646;2023-04-15T15:59:40;13.4;55.0
79301;SHT31;68755;51.984;5.646;2023-04-15T16:02:11;13.4;55.4
79301;SHT31;68755;51.984;5.646;2023-04-15T16:04:41;13.4;55.3
79301;SHT31;68755;51.984;5.646;2023-04-15T16:07:11;13.3;55.4
79301;SHT31;68755;51.984;5.646;2023-04-15T16:09:42;13.3;55.2
79301;SHT31;68755;51.984;5.646;2023-04-15T16:12:12;13.3;55.4
79301;SHT31;68755;51.984;5.646;2023-04-15T16:14:43;13.3;55.8
79301;SHT31;68755;51.984;5.646;2023-04-15T16:17:13;13.2;56.1
79301;SHT31;68755;51.984;5.646;2023-04-15T16:19:43;13.2;56.2
79301;SHT31;68755;51.984;5.646;2023-04-15T16:22:12;13.1;55.6
79301;SHT31;68755;51.984;5.646;2023-04-15T16:24:42;13.1;55.7